createdAt,value
2022-09-22T00:02:15.451Z,7.67
2022-09-22T00:05:01.707Z,8.80
2022-09-22T00:07:48.363Z,6.20
2022-09-22T00:10:34.195Z,6.83
2022-09-22T00:13:20.112Z,6.77
2022-09-22T00:16:07.949Z,8.83
2022-09-22T00:18:53.986Z,7.33
2022-09-22T00:21:39.774Z,7.47
2022-09-22T00:24:28.516Z,6.10
2022-09-22T00:27:14.261Z,6.80
2022-09-22T00:30:00.644Z,9.00
2022-09-22T00:32:46.596Z,6.50
2022-09-22T00:35:32.092Z,6.93
2022-09-22T00:38:18.049Z,6.33
2022-09-22T00:41:04.922Z,8.00
2022-09-22T00:44:10.657Z,7.00
2022-09-22T00:47:17.487Z,8.20
2022-09-22T00:50:03.356Z,8.07
2022-09-22T00:53:05.211Z,8.07
2022-09-22T00:55:56.378Z,6.23
2022-09-22T00:58:46.100Z,7.93
2022-09-22T01:01:36.894Z,6.50
2022-09-22T01:04:24.227Z,7.03
2022-09-22T01:07:10.540Z,5.93
2022-09-22T01:09:58.124Z,6.70
2022-09-22T01:12:49.971Z,6.07
2022-09-22T01:15:41.443Z,6.37
2022-09-22T01:18:48.827Z,6.43
2022-09-22T01:21:37.784Z,6.83
2022-09-22T01:24:42.376Z,7.20
2022-09-22T01:28:01.596Z,7.00
2022-09-22T01:31:06.033Z,6.77
2022-09-22T01:34:07.248Z,6.73
2022-09-22T01:37:03.305Z,7.83
2022-09-22T01:39:51.811Z,6.87
2022-09-22T01:42:39.473Z,7.20
2022-09-22T01:45:30.296Z,9.40
2022-09-22T01:48:21.002Z,6.00
2022-09-22T01:51:18.126Z,6.40
2022-09-22T01:54:15.928Z,9.63
2022-09-22T01:57:05.223Z,8.93
2022-09-22T01:59:54.985Z,6.40
2022-09-22T02:03:03.965Z,7.57
2022-09-22T02:05:51.889Z,7.00
2022-09-22T02:08:45.508Z,8.27
2022-09-22T02:11:31.795Z,6.60
2022-09-22T02:14:17.575Z,6.57
2022-09-22T02:17:03.581Z,11.50
2022-09-22T02:19:50.650Z,5.80
2022-09-22T02:22:36.629Z,6.00
2022-09-22T02:25:24.831Z,6.90
2022-09-22T02:28:13.244Z,6.40
2022-09-22T02:31:18.909Z,6.57
2022-09-22T02:34:07.615Z,7.40
2022-09-22T02:37:01.230Z,7.23
2022-09-22T02:40:04.125Z,6.37
2022-09-22T02:43:10.301Z,6.00
2022-09-22T02:46:09.893Z,6.40
2022-09-22T02:48:57.255Z,6.47
2022-09-22T02:51:43.657Z,6.80
2022-09-22T02:54:29.702Z,6.10
2022-09-22T02:57:15.514Z,5.43
2022-09-22T03:00:01.437Z,7.20
2022-09-22T03:02:47.408Z,5.97
2022-09-22T03:05:33.708Z,8.27
2022-09-22T03:08:19.647Z,5.57
2022-09-22T03:11:05.533Z,5.87
2022-09-22T03:13:51.562Z,6.70
2022-09-22T03:16:38.068Z,7.43
2022-09-22T03:19:23.911Z,8.17
2022-09-22T03:22:09.732Z,5.90
2022-09-22T03:24:55.895Z,6.80
2022-09-22T03:27:41.584Z,8.17
2022-09-22T03:30:27.370Z,7.50
2022-09-22T03:33:13.268Z,6.93
2022-09-22T03:36:00.244Z,6.73
2022-09-22T03:38:46.013Z,6.63
2022-09-22T03:41:31.901Z,7.53
2022-09-22T03:44:17.973Z,6.70
2022-09-22T03:47:04.056Z,8.80
2022-09-22T03:49:54.326Z,7.80
2022-09-22T03:52:45.665Z,12.10
2022-09-22T03:55:31.039Z,7.10
2022-09-22T03:58:17.303Z,9.70
2022-09-22T04:01:04.923Z,7.27
2022-09-22T04:03:50.855Z,6.37
2022-09-22T04:06:37.460Z,8.37
2022-09-22T04:09:23.355Z,7.60
2022-09-22T04:12:09.727Z,7.20
2022-09-22T04:14:55.595Z,9.47
2022-09-22T04:17:41.195Z,9.80
2022-09-22T04:20:27.490Z,7.40
2022-09-22T04:23:13.554Z,9.40
2022-09-22T04:25:59.702Z,7.20
2022-09-22T04:28:45.486Z,11.43
2022-09-22T04:31:31.095Z,7.10
2022-09-22T04:34:16.985Z,9.60
2022-09-22T04:37:03.219Z,9.93
2022-09-22T04:39:49.110Z,8.07
2022-09-22T04:42:35.063Z,7.00
2022-09-22T04:45:20.893Z,6.40
2022-09-22T04:48:06.603Z,7.97
2022-09-22T04:50:52.821Z,6.83
2022-09-22T04:53:38.389Z,12.17
2022-09-22T04:56:24.210Z,7.50
2022-09-22T04:59:10.557Z,8.80
2022-09-22T05:01:56.500Z,7.87
2022-09-22T05:04:42.390Z,8.93
2022-09-22T05:07:28.327Z,8.57
2022-09-22T05:10:15.270Z,7.47
2022-09-22T05:13:01.243Z,8.10
2022-09-22T05:15:46.995Z,11.27
2022-09-22T05:18:33.843Z,6.80
2022-09-22T05:21:19.728Z,7.47
2022-09-22T05:24:05.687Z,13.17
2022-09-22T05:26:53.290Z,8.67
2022-09-22T05:29:39.125Z,12.73
2022-09-22T05:32:24.766Z,7.17
2022-09-22T05:35:11.619Z,7.87
2022-09-22T05:37:59.011Z,8.43
2022-09-22T05:40:48.133Z,7.63
2022-09-22T05:43:34.017Z,9.77
2022-09-22T05:46:20.062Z,11.57
2022-09-22T05:49:07.659Z,8.53
2022-09-22T05:51:57.172Z,9.37
2022-09-22T05:54:42.888Z,12.17
2022-09-22T05:57:31.717Z,8.90
2022-09-22T06:00:17.666Z,10.20
2022-09-22T06:03:03.468Z,14.20
2022-09-22T06:05:49.269Z,8.10
2022-09-22T06:08:35.421Z,7.57
2022-09-22T06:11:21.034Z,14.30
2022-09-22T06:14:06.628Z,10.67
2022-09-22T06:16:52.242Z,14.03
2022-09-22T06:19:43.038Z,9.50
2022-09-22T06:22:28.915Z,11.53
2022-09-22T06:25:14.815Z,11.80
2022-09-22T06:28:02.125Z,8.43
2022-09-22T06:30:49.567Z,8.13
2022-09-22T06:33:35.730Z,8.90
2022-09-22T06:36:31.579Z,9.23
2022-09-22T06:39:18.300Z,7.80
2022-09-22T06:42:04.892Z,8.40
2022-09-22T06:44:53.365Z,8.03
2022-09-22T06:47:39.024Z,8.23
2022-09-22T06:50:29.504Z,7.30
2022-09-22T06:53:18.936Z,7.63
2022-09-22T06:56:05.903Z,9.47
2022-09-22T06:59:09.226Z,7.27
2022-09-22T07:01:55.691Z,8.90
2022-09-22T07:04:41.654Z,6.63
2022-09-22T07:07:28.751Z,8.23
2022-09-22T07:10:14.401Z,7.20
2022-09-22T07:13:03.254Z,6.90
2022-09-22T07:15:49.073Z,10.50
2022-09-22T07:18:35.775Z,8.13
2022-09-22T07:21:23.893Z,9.00
2022-09-22T07:24:09.499Z,9.10
2022-09-22T07:26:55.488Z,8.67
2022-09-22T07:29:43.003Z,9.90
2022-09-22T07:32:34.737Z,9.33
2022-09-22T07:35:20.625Z,7.80
2022-09-22T07:38:06.213Z,8.63
2022-09-22T07:40:53.474Z,6.70
2022-09-22T07:43:42.759Z,6.20
2022-09-22T07:46:29.995Z,10.57
2022-09-22T07:49:17.540Z,7.70
2022-09-22T07:52:03.535Z,8.67
2022-09-22T07:54:51.778Z,9.33
2022-09-22T07:57:38.251Z,8.93
2022-09-22T08:00:26.042Z,10.37
2022-09-22T08:03:11.458Z,13.57
2022-09-22T08:06:10.079Z,7.23
2022-09-22T08:08:57.010Z,7.07
2022-09-22T08:11:45.869Z,8.27
2022-09-22T08:14:31.667Z,7.20
2022-09-22T08:17:18.666Z,7.20
2022-09-22T08:20:05.158Z,7.80
2022-09-22T08:22:53.967Z,7.20
2022-09-22T08:25:40.273Z,10.33
2022-09-22T08:28:27.577Z,7.10
2022-09-22T08:31:15.064Z,7.97
2022-09-22T08:34:00.919Z,6.90
2022-09-22T08:36:48.539Z,6.57
2022-09-22T08:39:37.621Z,7.10
2022-09-22T08:42:28.626Z,7.10
2022-09-22T08:45:27.205Z,6.87
2022-09-22T08:48:37.947Z,7.93
2022-09-22T08:51:47.014Z,8.07
2022-09-22T08:54:32.859Z,6.70
2022-09-22T08:57:33.158Z,6.37
2022-09-22T09:00:19.595Z,6.93
2022-09-22T09:03:15.035Z,6.07
2022-09-22T09:06:24.056Z,5.40
2022-09-22T09:09:10.392Z,8.67
2022-09-22T09:12:06.716Z,5.40
2022-09-22T09:14:58.734Z,7.33
2022-09-22T09:17:49.378Z,8.33
2022-09-22T09:20:40.873Z,7.87
2022-09-22T09:26:38.454Z,6.47
2022-09-22T09:29:25.435Z,5.60
2022-09-22T09:32:20.360Z,5.47
2022-09-22T09:35:06.767Z,5.53
2022-09-22T09:38:01.166Z,7.63
2022-09-22T09:40:54.325Z,12.07
2022-09-22T09:43:45.034Z,5.73
2022-09-22T09:46:49.548Z,9.20
2022-09-22T09:49:37.794Z,12.30
2022-09-22T09:52:28.415Z,7.57
2022-09-22T09:55:27.450Z,7.70
2022-09-22T09:58:36.279Z,4.90
2022-09-22T10:01:22.431Z,5.90
2022-09-22T10:04:19.511Z,6.60
2022-09-22T10:07:14.033Z,6.47
2022-09-22T10:10:19.659Z,7.37
2022-09-22T10:13:06.396Z,5.40
2022-09-22T10:16:03.864Z,8.53
2022-09-22T10:19:10.337Z,3.63
2022-09-22T10:22:20.167Z,4.87
2022-09-22T10:25:05.679Z,5.67
2022-09-22T10:28:01.937Z,8.90
2022-09-22T10:31:05.615Z,3.83
2022-09-22T10:33:55.650Z,3.93
2022-09-22T10:36:47.376Z,4.53
2022-09-22T10:39:59.299Z,5.80
2022-09-22T10:42:48.196Z,5.00
2022-09-22T10:45:42.943Z,4.63
2022-09-22T10:48:35.895Z,5.40
2022-09-22T10:51:21.847Z,3.90
2022-09-22T10:54:19.742Z,4.10
2022-09-22T10:57:10.087Z,4.87
2022-09-22T11:00:12.087Z,4.70
2022-09-22T11:03:06.872Z,3.50
2022-09-22T11:06:18.993Z,2.80
2022-09-22T11:09:42.476Z,7.43
2022-09-22T11:12:28.761Z,3.17
2022-09-22T11:15:30.704Z,4.30
2022-09-22T11:18:32.403Z,5.60
2022-09-22T11:21:36.323Z,7.20
2022-09-22T11:24:34.109Z,3.50
2022-09-22T11:27:26.510Z,5.33
2022-09-22T11:30:18.157Z,3.57
2022-09-22T11:33:19.204Z,4.50
2022-09-22T11:36:13.989Z,3.10
2022-09-22T11:39:08.806Z,3.27
2022-09-22T11:42:18.470Z,3.20
2022-09-22T11:45:22.697Z,3.60
2022-09-22T11:48:14.653Z,6.57
2022-09-22T11:51:00.513Z,3.20
2022-09-22T11:53:57.485Z,3.80
2022-09-22T11:56:45.476Z,3.60
2022-09-22T11:59:42.460Z,4.17
2022-09-22T12:02:49.379Z,7.03
2022-09-22T12:05:42.032Z,3.70
2022-09-22T12:08:32.916Z,3.23
2022-09-22T12:11:20.999Z,10.07
2022-09-22T12:14:09.899Z,4.20
2022-09-22T12:16:59.443Z,4.23
2022-09-22T12:22:44.832Z,2.57
2022-09-22T12:26:04.146Z,4.67
2022-09-22T12:28:51.015Z,2.70
2022-09-22T12:31:40.402Z,5.60
2022-09-22T12:34:32.367Z,6.90
2022-09-22T12:37:44.191Z,2.47
2022-09-22T12:40:31.677Z,3.63
2022-09-22T12:43:21.574Z,2.53
2022-09-22T12:46:16.338Z,5.13
2022-09-22T12:49:08.827Z,5.23
2022-09-22T12:51:54.849Z,3.00
2022-09-22T12:54:41.021Z,3.20
2022-09-22T12:57:27.666Z,3.37
2022-09-22T13:00:17.264Z,2.90
2022-09-22T13:03:23.152Z,3.77
2022-09-22T13:06:27.729Z,3.80
2022-09-22T13:09:25.439Z,3.10
2022-09-22T13:12:14.499Z,2.70
2022-09-22T13:15:01.646Z,2.90
2022-09-22T13:17:49.345Z,5.10
2022-09-22T13:20:35.667Z,2.70
2022-09-22T13:23:24.291Z,4.13
2022-09-22T13:26:13.246Z,2.50
2022-09-22T13:29:20.544Z,4.43
2022-09-22T13:32:18.749Z,3.43
2022-09-22T13:35:05.835Z,2.73
2022-09-22T13:37:53.146Z,2.97
2022-09-22T13:40:38.992Z,3.70
2022-09-22T13:43:28.523Z,2.90
2022-09-22T13:46:20.700Z,2.97
2022-09-22T13:49:07.991Z,2.70
2022-09-22T13:51:56.588Z,2.27
2022-09-22T13:54:42.181Z,5.77
2022-09-22T13:57:32.169Z,4.87
2022-09-22T14:00:21.075Z,2.93
2022-09-22T14:03:06.916Z,3.17
2022-09-22T14:05:53.862Z,4.87
2022-09-22T14:08:41.047Z,4.27
2022-09-22T14:11:33.081Z,5.13
2022-09-22T14:14:27.227Z,2.40
2022-09-22T14:17:13.074Z,2.43
2022-09-22T14:20:02.827Z,2.70
2022-09-22T14:22:52.814Z,3.30
2022-09-22T14:25:40.052Z,3.03
2022-09-22T14:28:32.595Z,2.80
2022-09-22T14:31:24.268Z,4.40
2022-09-22T14:34:10.539Z,3.00
2022-09-22T14:36:56.206Z,2.63
2022-09-22T14:39:42.270Z,3.70
2022-09-22T14:42:29.288Z,4.70
2022-09-22T14:45:18.642Z,4.07
2022-09-22T14:48:16.795Z,2.23
2022-09-22T14:51:08.211Z,2.80
2022-09-22T14:54:01.438Z,5.93
2022-09-22T14:56:47.247Z,3.17
2022-09-22T14:59:54.371Z,2.77
2022-09-22T15:02:42.058Z,2.50
2022-09-22T15:05:30.349Z,3.20
2022-09-22T15:08:19.078Z,2.80
2022-09-22T15:11:05.032Z,3.60
2022-09-22T15:13:52.641Z,3.20
2022-09-22T15:16:39.986Z,5.73
2022-09-22T15:19:25.781Z,2.80
2022-09-22T15:22:14.925Z,2.60
2022-09-22T15:25:00.927Z,3.90
2022-09-22T15:27:46.640Z,3.07
2022-09-22T15:30:32.595Z,3.07
2022-09-22T15:33:18.778Z,3.20
2022-09-22T15:36:10.633Z,2.30
2022-09-22T15:39:01.597Z,2.97
2022-09-22T15:41:48.151Z,3.30
2022-09-22T15:44:33.955Z,2.20
2022-09-22T15:47:20.012Z,2.57
2022-09-22T15:50:06.832Z,5.40
2022-09-22T15:52:52.737Z,2.90
2022-09-22T15:55:38.791Z,2.20
2022-09-22T15:58:25.517Z,2.53
2022-09-22T16:01:11.393Z,2.13
2022-09-22T16:03:59.949Z,3.63
2022-09-22T16:06:49.503Z,2.97
2022-09-22T16:09:35.970Z,3.83
2022-09-22T16:12:24.222Z,2.27
2022-09-22T16:15:14.464Z,2.07
2022-09-22T16:18:00.227Z,2.70
2022-09-22T16:20:46.985Z,2.90
2022-09-22T16:23:33.294Z,2.40
2022-09-22T16:26:18.735Z,3.43
2022-09-22T16:29:04.945Z,4.90
2022-09-22T16:31:51.519Z,2.93
2022-09-22T16:34:37.379Z,2.43
2022-09-22T16:37:24.187Z,3.67
2022-09-22T16:40:10.121Z,3.90
2022-09-22T16:42:55.654Z,3.27
2022-09-22T16:46:00.157Z,3.80
2022-09-22T16:48:45.938Z,2.70
2022-09-22T16:51:41.063Z,2.47
2022-09-22T16:54:26.575Z,3.63
2022-09-22T16:57:13.751Z,3.47
2022-09-22T16:59:59.592Z,2.53
2022-09-22T17:02:46.705Z,2.60
2022-09-22T17:05:32.781Z,2.43
2022-09-22T17:08:20.045Z,3.80
2022-09-22T17:11:06.241Z,3.60
2022-09-22T17:13:55.930Z,3.60
2022-09-22T17:16:43.216Z,3.43
2022-09-22T17:19:29.644Z,3.43
2022-09-22T17:22:16.083Z,3.10
2022-09-22T17:25:02.365Z,6.03
2022-09-22T17:27:47.899Z,4.10
2022-09-22T17:30:34.115Z,3.47
2022-09-22T17:33:22.651Z,4.20
2022-09-22T17:36:08.623Z,3.47
2022-09-22T17:38:56.198Z,4.83
2022-09-22T17:41:46.307Z,3.37
2022-09-22T17:44:33.481Z,4.47
2022-09-22T17:47:38.169Z,7.17
2022-09-22T17:50:42.474Z,6.23
2022-09-22T17:53:51.437Z,5.53
2022-09-22T17:56:36.931Z,6.73
2022-09-22T17:59:22.765Z,6.40
2022-09-22T18:02:10.843Z,4.10
2022-09-22T18:04:56.556Z,6.17
2022-09-22T18:07:42.694Z,8.50
2022-09-22T18:10:35.027Z,6.80
2022-09-22T18:13:20.431Z,5.43
2022-09-22T18:16:22.701Z,6.30
2022-09-22T18:19:09.620Z,7.83
2022-09-22T18:21:55.818Z,5.50
2022-09-22T18:24:43.647Z,9.03
2022-09-22T18:27:29.735Z,8.13
2022-09-22T18:30:19.055Z,7.87
2022-09-22T18:33:04.613Z,7.43
2022-09-22T18:35:50.885Z,7.20
2022-09-22T18:38:38.073Z,10.20
2022-09-22T18:41:23.673Z,7.77
2022-09-22T18:44:09.838Z,15.40
2022-09-22T18:47:01.083Z,8.60
2022-09-22T18:49:48.739Z,12.30
2022-09-22T18:52:34.637Z,13.10
2022-09-22T18:55:20.931Z,15.70
2022-09-22T18:58:06.734Z,12.53
2022-09-22T19:00:52.644Z,11.57
2022-09-22T19:03:39.225Z,7.33
2022-09-22T19:06:24.689Z,12.43
2022-09-22T19:09:10.548Z,7.33
2022-09-22T19:11:56.193Z,10.10
2022-09-22T19:14:42.209Z,9.47
2022-09-22T19:17:28.634Z,16.00
2022-09-22T19:20:14.995Z,9.93
2022-09-22T19:23:00.923Z,8.00
2022-09-22T19:25:51.523Z,10.10
2022-09-22T19:28:38.426Z,7.50
2022-09-22T19:31:24.354Z,9.83
2022-09-22T19:34:11.343Z,7.97
2022-09-22T19:36:58.196Z,8.17
2022-09-22T19:39:43.980Z,7.17
2022-09-22T19:42:29.785Z,9.50
2022-09-22T19:45:15.979Z,8.10
2022-09-22T19:48:02.779Z,9.60
2022-09-22T19:50:48.847Z,7.13
2022-09-22T19:53:34.366Z,7.80
2022-09-22T19:56:21.208Z,8.07
2022-09-22T19:59:10.512Z,10.03
2022-09-22T20:01:56.292Z,12.53
2022-09-22T20:04:42.225Z,10.97
2022-09-22T20:07:30.603Z,8.90
2022-09-22T20:10:18.814Z,11.70
2022-09-22T20:13:24.333Z,10.10
2022-09-22T20:16:09.823Z,9.63
2022-09-22T20:18:55.711Z,10.13
2022-09-22T20:21:42.987Z,9.60
2022-09-22T20:24:28.838Z,11.17
2022-09-22T20:27:14.765Z,7.17
2022-09-22T20:30:00.682Z,12.20
2022-09-22T20:32:46.464Z,7.33
2022-09-22T20:35:31.965Z,7.13
2022-09-22T20:38:18.174Z,8.43
2022-09-22T20:41:03.971Z,7.23
2022-09-22T20:43:49.883Z,10.80
2022-09-22T20:46:35.444Z,8.00
2022-09-22T20:49:22.145Z,7.57
2022-09-22T20:52:07.719Z,9.17
2022-09-22T20:54:53.467Z,7.37
2022-09-22T20:57:40.349Z,8.27
2022-09-22T21:00:25.926Z,8.20
2022-09-22T21:03:11.848Z,7.23
2022-09-22T21:06:01.364Z,7.40
2022-09-22T21:09:05.787Z,8.97
2022-09-22T21:11:51.843Z,12.20
2022-09-22T21:14:37.636Z,8.60
2022-09-22T21:17:23.556Z,11.23
2022-09-22T21:20:10.816Z,7.57
2022-09-22T21:22:56.454Z,8.50
2022-09-22T21:25:42.310Z,8.40
2022-09-22T21:28:28.535Z,8.97
2022-09-22T21:31:14.507Z,9.00
2022-09-22T21:34:00.331Z,8.83
2022-09-22T21:36:46.605Z,8.63
2022-09-22T21:39:32.317Z,10.47
2022-09-22T21:42:18.121Z,9.77
2022-09-22T21:45:03.614Z,9.73
2022-09-22T21:47:50.934Z,9.90
2022-09-22T21:50:37.038Z,9.53
2022-09-22T21:53:23.143Z,8.30
2022-09-22T21:56:12.929Z,8.30
2022-09-22T21:58:58.551Z,8.00
2022-09-22T22:01:45.101Z,10.97
2022-09-22T22:04:33.441Z,8.93
2022-09-22T22:07:19.699Z,8.47
2022-09-22T22:10:07.408Z,8.03
2022-09-22T22:12:53.083Z,9.13
2022-09-22T22:15:40.445Z,9.30
2022-09-22T22:18:26.165Z,8.53
2022-09-22T22:21:13.384Z,8.40
2022-09-22T22:24:20.837Z,8.13
2022-09-22T22:27:09.871Z,8.53
2022-09-22T22:29:56.115Z,17.50
2022-09-22T22:32:42.390Z,9.00
2022-09-22T22:35:28.766Z,8.03
2022-09-22T22:38:14.825Z,8.00
2022-09-22T22:41:11.093Z,7.40
2022-09-22T22:43:57.681Z,8.60
2022-09-22T22:46:43.960Z,8.40
2022-09-22T22:49:30.236Z,7.97
2022-09-22T22:52:16.162Z,7.90
2022-09-22T22:55:01.949Z,7.50
2022-09-22T22:57:48.085Z,8.17
2022-09-22T23:00:34.449Z,8.90
2022-09-22T23:03:20.415Z,7.63
2022-09-22T23:06:06.649Z,8.37
2022-09-22T23:08:52.835Z,7.40
2022-09-22T23:11:40.897Z,7.57
2022-09-22T23:14:27.377Z,8.47
2022-09-22T23:17:13.363Z,9.00
2022-09-22T23:19:59.354Z,8.00
2022-09-22T23:22:45.449Z,7.77
2022-09-22T23:25:34.623Z,7.93
2022-09-22T23:28:20.666Z,7.20
2022-09-22T23:31:08.791Z,8.30
2022-09-22T23:33:54.657Z,7.50
2022-09-22T23:36:40.342Z,11.23
2022-09-22T23:39:26.471Z,8.40
2022-09-22T23:42:12.496Z,7.77
2022-09-22T23:44:58.610Z,8.27
2022-09-22T23:47:44.621Z,8.27
2022-09-22T23:50:30.484Z,7.47
2022-09-22T23:53:19.215Z,8.30
2022-09-22T23:56:06.197Z,8.03
2022-09-22T23:58:52.186Z,7.70
